createdAt,value
2018-08-24T00:00:28.031Z,25.10
2018-08-24T00:03:00.024Z,25.10
2018-08-24T00:05:32.247Z,25.10
2018-08-24T00:08:13.749Z,25.20
2018-08-24T00:10:54.827Z,25.30
2018-08-24T00:13:23.583Z,25.40
2018-08-24T00:16:05.927Z,25.40
2018-08-24T00:21:24.515Z,25.30
2018-08-24T00:24:08.589Z,25.20
2018-08-24T00:29:27.597Z,25.10
2018-08-24T00:31:56.382Z,25.10
2018-08-24T00:34:25.617Z,25.10
2018-08-24T00:37:09.460Z,25.00
2018-08-24T00:39:50.442Z,25.00
2018-08-24T00:42:26.844Z,25.10
2018-08-24T00:45:06.395Z,25.20
2018-08-24T00:50:23.189Z,25.20
2018-08-24T00:53:18.712Z,25.10
2018-08-24T00:55:47.062Z,25.20
2018-08-24T00:58:32.136Z,25.10
2018-08-24T01:01:22.330Z,25.10
2018-08-24T01:04:03.126Z,25.00
2018-08-24T01:06:40.982Z,25.00
2018-08-24T01:09:26.005Z,25.00
2018-08-24T01:12:17.867Z,25.00
2018-08-24T01:15:16.523Z,24.90
2018-08-24T01:18:05.720Z,24.90
2018-08-24T01:20:51.462Z,24.90
2018-08-24T01:23:27.026Z,25.00
2018-08-24T01:28:59.078Z,25.20
2018-08-24T01:31:29.870Z,25.30
2018-08-24T01:34:07.831Z,25.20
2018-08-24T01:37:00.154Z,25.20
2018-08-24T01:39:37.382Z,25.10
2018-08-24T01:42:24.064Z,25.00
2018-08-24T01:45:07.326Z,25.00
2018-08-24T01:47:50.325Z,25.00
2018-08-24T01:50:29.904Z,25.00
2018-08-24T01:53:10.226Z,24.90
2018-08-24T01:56:06.968Z,24.90
2018-08-24T01:58:52.745Z,25.00
2018-08-24T02:01:36.556Z,25.00
2018-08-24T02:04:22.502Z,25.10
2018-08-24T02:10:32.284Z,25.00
2018-08-24T02:13:05.948Z,25.00
2018-08-24T02:15:58.982Z,25.00
2018-08-24T02:18:38.940Z,25.00
2018-08-24T02:21:12.912Z,24.90
2018-08-24T02:24:00.548Z,24.80
2018-08-24T02:26:29.271Z,24.80
2018-08-24T02:28:58.978Z,24.80
2018-08-24T02:31:35.584Z,24.80
2018-08-24T02:34:04.824Z,24.80
2018-08-24T02:36:58.860Z,24.70
2018-08-24T02:39:30.254Z,24.80
2018-08-24T02:42:09.018Z,24.90
2018-08-24T02:47:26.700Z,25.10
2018-08-24T02:50:10.852Z,25.10
2018-08-24T02:55:29.330Z,25.00
2018-08-24T02:57:58.062Z,24.90
2018-08-24T03:00:31.420Z,24.90
2018-08-24T03:03:01.219Z,24.90
2018-08-24T03:05:35.118Z,24.90
2018-08-24T03:08:20.150Z,24.90
2018-08-24T03:11:04.688Z,24.80
2018-08-24T03:13:48.670Z,24.80
2018-08-24T03:16:29.147Z,24.80
2018-08-24T03:19:09.882Z,24.80
2018-08-24T03:21:48.514Z,24.70
2018-08-24T03:24:29.272Z,24.70
2018-08-24T03:27:13.024Z,24.70
2018-08-24T03:32:29.485Z,24.80
2018-08-24T03:35:15.863Z,25.00
2018-08-24T03:38:08.580Z,25.10
2018-08-24T03:51:24.238Z,24.80
2018-08-24T03:53:55.789Z,24.80
2018-08-24T03:56:24.117Z,24.80
2018-08-24T03:59:10.339Z,24.70
2018-08-24T04:02:16.137Z,24.70
2018-08-24T04:05:04.162Z,24.70
2018-08-24T04:07:37.892Z,24.80
2018-08-24T04:10:24.301Z,24.80
2018-08-24T04:13:34.011Z,24.80
2018-08-24T04:20:19.582Z,24.70
2018-08-24T04:23:01.407Z,24.70
2018-08-24T04:25:33.724Z,24.60
2018-08-24T04:28:01.996Z,24.50
2018-08-24T04:30:47.421Z,24.50
2018-08-24T04:33:29.134Z,24.50
2018-08-24T04:36:15.020Z,24.60
2018-08-24T04:38:52.285Z,24.70
2018-08-24T04:41:31.750Z,24.70
2018-08-24T04:44:08.919Z,24.60
2018-08-24T04:46:49.438Z,24.60
2018-08-24T04:49:27.548Z,24.60
2018-08-24T04:51:55.817Z,24.50
2018-08-24T04:54:24.098Z,24.50
2018-08-24T04:57:04.962Z,24.50
2018-08-24T04:59:39.884Z,24.50
2018-08-24T05:02:08.262Z,24.60
2018-08-24T05:04:43.910Z,24.60
2018-08-24T05:07:20.682Z,24.60
2018-08-24T05:10:01.895Z,24.60
2018-08-24T05:12:55.758Z,24.50
2018-08-24T05:15:30.096Z,24.50
2018-08-24T05:18:09.639Z,24.50
2018-08-24T05:20:54.074Z,24.50
2018-08-24T05:23:26.408Z,24.40
2018-08-24T05:25:56.628Z,24.40
2018-08-24T05:28:25.650Z,24.40
2018-08-24T05:31:06.046Z,24.40
2018-08-24T05:33:43.601Z,24.40
2018-08-24T05:40:19.653Z,24.30
2018-08-24T05:43:11.663Z,24.40
2018-08-24T05:45:40.613Z,24.50
2018-08-24T05:48:37.761Z,24.60
2018-08-24T05:51:24.377Z,24.60
2018-08-24T05:57:23.261Z,24.50
2018-08-24T06:00:10.047Z,24.50
2018-08-24T06:06:13.785Z,24.40
2018-08-24T06:09:08.817Z,24.40
2018-08-24T06:11:39.261Z,24.50
2018-08-24T06:17:31.819Z,24.60
2018-08-24T06:20:26.912Z,24.50
2018-08-24T06:23:09.795Z,24.50
2018-08-24T06:25:38.368Z,24.50
2018-08-24T06:28:08.001Z,24.50
2018-08-24T06:30:38.189Z,24.40
2018-08-24T06:33:07.586Z,24.40
2018-08-24T06:35:50.551Z,24.40
2018-08-24T06:38:30.068Z,24.40
2018-08-24T06:44:03.054Z,24.30
2018-08-24T06:46:38.121Z,24.30
2018-08-24T06:49:25.586Z,24.30
2018-08-24T06:52:30.628Z,24.40
2018-08-24T06:57:57.522Z,24.60
2018-08-24T07:00:33.567Z,24.50
2018-08-24T07:03:03.469Z,24.50
2018-08-24T07:05:42.466Z,24.40
2018-08-24T07:08:43.201Z,24.40
2018-08-24T07:11:16.526Z,24.30
2018-08-24T07:13:53.270Z,24.30
2018-08-24T07:16:24.806Z,24.30
2018-08-24T07:19:04.076Z,24.20
2018-08-24T07:21:33.365Z,24.20
2018-08-24T07:30:06.640Z,24.30
2018-08-24T07:35:32.265Z,24.30
2018-08-24T07:38:00.548Z,24.30
2018-08-24T07:44:14.473Z,24.30
2018-08-24T07:46:56.527Z,24.30
2018-08-24T07:49:56.879Z,24.30
2018-08-24T07:53:20.183Z,24.30
2018-08-24T07:56:22.186Z,24.30
2018-08-24T07:59:38.609Z,24.20
2018-08-24T08:02:54.633Z,24.20
2018-08-24T08:05:56.375Z,24.10
2018-08-24T08:09:21.815Z,24.20
2018-08-24T08:15:51.851Z,24.40
2018-08-24T08:18:57.441Z,24.40
2018-08-24T08:21:53.558Z,24.40
2018-08-24T08:27:41.154Z,24.20
2018-08-24T08:30:19.614Z,24.20
2018-08-24T08:33:20.609Z,24.10
2018-08-24T08:35:49.598Z,24.10
2018-08-24T08:38:18.193Z,24.00
2018-08-24T08:40:46.738Z,24.00
2018-08-24T08:43:40.666Z,24.00
2018-08-24T08:46:10.335Z,24.00
2018-08-24T08:48:38.655Z,24.00
2018-08-24T08:51:14.331Z,24.00
2018-08-24T08:54:05.072Z,23.90
2018-08-24T08:56:53.893Z,23.90
2018-08-24T08:59:29.271Z,23.90
2018-08-24T09:02:10.049Z,24.00
2018-08-24T09:05:03.801Z,24.20
2018-08-24T09:07:41.513Z,24.30
2018-08-24T09:10:09.807Z,24.20
2018-08-24T09:12:56.040Z,24.20
2018-08-24T09:15:28.695Z,24.10
2018-08-24T09:18:16.979Z,24.00
2018-08-24T09:21:05.508Z,24.00
2018-08-24T09:23:54.324Z,24.00
2018-08-24T09:26:39.523Z,23.90
2018-08-24T09:29:24.033Z,23.90
2018-08-24T09:32:30.104Z,23.90
2018-08-24T09:35:21.621Z,23.90
2018-08-24T09:38:07.255Z,24.00
2018-08-24T09:44:43.787Z,24.20
2018-08-24T09:47:26.522Z,24.20
2018-08-24T09:50:12.403Z,24.10
2018-08-24T09:52:52.981Z,24.00
2018-08-24T09:55:34.064Z,24.00
2018-08-24T09:58:02.337Z,24.00
2018-08-24T10:00:38.913Z,24.00
2018-08-24T10:05:56.468Z,23.90
2018-08-24T10:08:39.965Z,23.80
2018-08-24T10:11:23.761Z,23.80
2018-08-24T10:14:05.487Z,23.90
2018-08-24T10:16:51.419Z,24.00
2018-08-24T10:19:25.995Z,24.00
2018-08-24T10:21:54.273Z,24.00
2018-08-24T10:24:22.544Z,24.00
2018-08-24T10:27:15.234Z,24.00
2018-08-24T10:30:04.743Z,23.90
2018-08-24T10:32:38.059Z,23.90
2018-08-24T10:35:17.804Z,23.80
2018-08-24T10:37:53.307Z,23.80
2018-08-24T10:40:27.843Z,23.80
2018-08-24T10:43:09.331Z,23.90
2018-08-24T10:45:47.603Z,23.90
2018-08-24T10:48:24.707Z,23.90
2018-08-24T10:51:04.549Z,23.90
2018-08-24T10:53:49.580Z,23.90
2018-08-24T10:56:27.626Z,23.90
2018-08-24T10:59:07.391Z,23.80
2018-08-24T11:01:57.715Z,23.80
2018-08-24T11:04:29.367Z,23.70
2018-08-24T11:07:06.300Z,23.70
2018-08-24T11:09:45.025Z,23.70
2018-08-24T11:12:33.068Z,23.80
2018-08-24T11:15:12.104Z,23.70
2018-08-24T11:17:51.431Z,23.70
2018-08-24T11:20:30.373Z,23.70
2018-08-24T11:23:07.937Z,23.80
2018-08-24T11:25:36.230Z,23.80
2018-08-24T11:28:04.528Z,23.90
2018-08-24T11:30:40.512Z,23.90
2018-08-24T11:33:23.676Z,23.90
2018-08-24T11:36:06.181Z,23.90
2018-08-24T11:38:46.808Z,23.90
2018-08-24T11:41:15.108Z,23.80
2018-08-24T11:44:00.632Z,23.80
2018-08-24T11:46:28.914Z,23.70
2018-08-24T11:49:05.121Z,23.70
2018-08-24T11:51:44.570Z,23.70
2018-08-24T11:54:27.561Z,23.90
2018-08-24T11:57:06.866Z,23.90
2018-08-24T11:59:47.146Z,23.90
2018-08-24T12:02:15.455Z,23.80
2018-08-24T12:05:02.919Z,23.80
2018-08-24T12:07:40.805Z,23.80
2018-08-24T12:10:24.670Z,23.80
2018-08-24T12:13:08.784Z,23.70
2018-08-24T12:15:50.421Z,23.70
2018-08-24T12:18:27.377Z,23.70
2018-08-24T12:21:10.182Z,23.70
2018-08-24T12:23:55.568Z,23.70
2018-08-24T12:26:23.852Z,23.60
2018-08-24T12:29:06.416Z,23.60
2018-08-24T12:31:35.713Z,23.60
2018-08-24T12:34:04.021Z,23.70
2018-08-24T12:36:37.276Z,23.80
2018-08-24T12:39:21.404Z,23.90
2018-08-24T12:42:04.203Z,24.10
2018-08-24T12:48:19.312Z,24.00
2018-08-24T12:51:06.461Z,23.90
2018-08-24T12:58:52.584Z,23.80
2018-08-24T13:11:12.569Z,23.60
2018-08-24T13:13:51.738Z,23.70
2018-08-24T13:16:29.920Z,23.80
2018-08-24T13:19:10.214Z,23.70
2018-08-24T13:24:33.106Z,23.70
2018-08-24T13:27:01.799Z,23.70
2018-08-24T13:29:30.118Z,23.70
2018-08-24T13:32:08.087Z,23.60
2018-08-24T13:37:27.733Z,23.60
2018-08-24T13:39:57.081Z,23.60
2018-08-24T13:42:29.296Z,23.60
2018-08-24T13:45:14.405Z,23.60
2018-08-24T13:48:02.886Z,23.60
2018-08-24T13:50:39.075Z,23.50
2018-08-24T13:53:07.389Z,23.60
2018-08-24T13:55:39.510Z,23.70
2018-08-24T13:58:07.829Z,23.80
2018-08-24T14:00:46.687Z,23.90
2018-08-24T14:03:29.418Z,24.00
2018-08-24T14:09:11.853Z,23.90
2018-08-24T14:11:40.652Z,23.80
2018-08-24T14:14:09.609Z,23.70
2018-08-24T14:16:54.029Z,23.70
2018-08-24T14:19:29.552Z,23.70
2018-08-24T14:21:58.017Z,23.60
2018-08-24T14:24:26.784Z,23.60
2018-08-24T14:27:09.331Z,23.50
2018-08-24T14:29:51.477Z,23.50
2018-08-24T14:32:34.451Z,23.60
2018-08-24T14:51:10.252Z,23.60
2018-08-24T14:57:00.717Z,23.50
2018-08-24T14:59:29.163Z,23.50
2018-08-24T15:02:07.617Z,23.50
2018-08-24T15:05:15.865Z,23.50
2018-08-24T15:08:05.804Z,23.50
2018-08-24T15:10:36.197Z,23.40
2018-08-24T15:13:11.880Z,23.40
2018-08-24T15:15:53.453Z,23.60
2018-08-24T15:18:27.015Z,23.70
2018-08-24T15:21:19.020Z,23.80
2018-08-24T15:24:10.511Z,23.90
2018-08-24T15:26:41.407Z,23.80
2018-08-24T15:32:11.701Z,23.70
2018-08-24T15:35:01.703Z,23.60
2018-08-24T15:41:07.390Z,23.60
2018-08-24T15:43:48.517Z,23.50
2018-08-24T15:46:30.687Z,23.40
2018-08-24T15:49:07.310Z,23.40
2018-08-24T15:51:47.710Z,23.40
2018-08-24T15:54:20.949Z,23.50
2018-08-24T15:57:05.653Z,23.60
2018-08-24T15:59:49.221Z,23.60
2018-08-24T16:02:27.653Z,23.60
2018-08-24T16:05:09.985Z,23.60
2018-08-24T16:10:30.384Z,23.60
2018-08-24T16:13:15.506Z,23.50
2018-08-24T16:15:51.040Z,23.40
2018-08-24T16:21:45.789Z,23.50
2018-08-24T16:28:08.978Z,23.70
2018-08-24T16:34:41.998Z,23.60
2018-08-24T16:47:25.307Z,23.40
2018-08-24T16:50:23.009Z,23.30
2018-08-24T16:56:57.615Z,23.40
2018-08-24T17:02:46.701Z,23.30
2018-08-24T17:08:30.061Z,23.60
2018-08-24T17:10:58.387Z,23.60
2018-08-24T17:13:44.047Z,23.60
2018-08-24T17:16:51.854Z,23.60
2018-08-24T17:19:25.402Z,23.60
2018-08-24T17:22:11.971Z,23.60
2018-08-24T17:24:47.387Z,23.50
2018-08-24T17:32:52.590Z,23.50
2018-08-24T17:41:25.773Z,23.50
2018-08-24T17:47:06.503Z,23.50
2018-08-24T17:49:51.695Z,23.50
2018-08-24T17:52:31.609Z,23.40
2018-08-24T17:58:16.989Z,23.30
2018-08-24T18:00:53.863Z,23.30
2018-08-24T18:03:40.199Z,23.40
2018-08-24T18:10:43.631Z,23.50
2018-08-24T18:13:52.190Z,23.50
2018-08-24T18:16:53.411Z,23.40
2018-08-24T18:19:56.291Z,23.40
2018-08-24T18:23:17.054Z,23.40
2018-08-24T18:32:00.800Z,23.40
2018-08-24T18:38:02.496Z,23.50
2018-08-24T18:40:56.886Z,23.40
2018-08-24T18:43:28.766Z,23.40
2018-08-24T18:46:23.890Z,23.40
2018-08-24T18:48:56.141Z,23.40
2018-08-24T18:51:24.536Z,23.30
2018-08-24T18:54:16.185Z,23.20
2018-08-24T18:56:44.991Z,23.20
2018-08-24T18:59:13.331Z,23.30
2018-08-24T19:01:48.773Z,23.30
2018-08-24T19:04:25.971Z,23.20
2018-08-24T19:06:54.460Z,23.20
2018-08-24T19:09:22.777Z,23.20
2018-08-24T19:12:07.442Z,23.20
2018-08-24T19:14:48.785Z,23.30
2018-08-24T19:17:22.467Z,23.40
2018-08-24T19:20:05.925Z,23.50
2018-08-24T19:22:51.487Z,23.40
2018-08-24T19:25:29.187Z,23.40
2018-08-24T19:28:02.862Z,23.40
2018-08-24T19:30:45.122Z,23.40
2018-08-24T19:33:26.574Z,23.30
2018-08-24T19:35:54.899Z,23.30
2018-08-24T19:38:23.297Z,23.20
2018-08-24T19:41:05.984Z,23.20
2018-08-24T19:43:47.351Z,23.20
2018-08-24T19:46:25.673Z,23.20
2018-08-24T19:48:59.526Z,23.20
2018-08-24T19:51:28.883Z,23.10
2018-08-24T19:54:13.863Z,23.10
2018-08-24T19:56:42.664Z,23.20
2018-08-24T19:59:30.714Z,23.30
2018-08-24T20:02:13.219Z,23.40
2018-08-24T20:04:54.683Z,23.40
2018-08-24T20:07:34.700Z,23.30
2018-08-24T20:10:46.248Z,23.30
2018-08-24T20:13:15.360Z,23.30
2018-08-24T20:15:59.695Z,23.30
2018-08-24T20:18:29.230Z,23.30
2018-08-24T20:23:57.956Z,23.20
2018-08-24T20:26:26.596Z,23.20
2018-08-24T20:29:12.659Z,23.30
2018-08-24T20:31:44.185Z,23.30
2018-08-24T20:34:12.510Z,23.30
2018-08-24T20:36:54.903Z,23.30
2018-08-24T20:39:30.754Z,23.20
2018-08-24T20:42:30.209Z,23.20
2018-08-24T20:48:25.682Z,23.20
2018-08-24T20:51:12.973Z,23.10
2018-08-24T20:54:00.797Z,23.10
2018-08-24T20:56:30.302Z,23.20
2018-08-24T20:59:10.345Z,23.30
2018-08-24T21:01:40.034Z,23.30
2018-08-24T21:04:24.440Z,23.30
2018-08-24T21:07:11.065Z,23.20
2018-08-24T21:09:39.562Z,23.20
2018-08-24T21:12:08.030Z,23.20
2018-08-24T21:14:49.067Z,23.20
2018-08-24T21:17:34.011Z,23.10
2018-08-24T21:20:28.612Z,23.10
2018-08-24T21:22:58.428Z,23.10
2018-08-24T21:25:27.137Z,23.10
2018-08-24T21:28:26.319Z,23.00
2018-08-24T21:30:55.555Z,23.00
2018-08-24T21:33:24.341Z,23.00
2018-08-24T21:36:08.903Z,23.00
2018-08-24T21:38:51.148Z,23.10
2018-08-24T21:41:20.056Z,23.20
2018-08-24T21:44:06.228Z,23.20
2018-08-24T21:49:28.406Z,23.20
2018-08-24T21:51:58.889Z,23.10
2018-08-24T21:54:30.033Z,23.20
2018-08-24T21:57:02.635Z,23.10
2018-08-24T21:59:43.091Z,23.10
2018-08-24T22:02:11.672Z,23.00
2018-08-24T22:04:54.697Z,23.00
2018-08-24T22:07:36.088Z,23.00
2018-08-24T22:10:05.139Z,23.00
2018-08-24T22:12:42.376Z,23.00
2018-08-24T22:15:21.098Z,22.90
2018-08-24T22:18:08.685Z,22.90
2018-08-24T22:20:41.539Z,22.90
2018-08-24T22:23:10.556Z,23.00
2018-08-24T22:25:39.653Z,23.10
2018-08-24T22:28:53.566Z,23.20
2018-08-24T22:31:28.838Z,23.30
2018-08-24T22:33:57.250Z,23.30
2018-08-24T22:36:26.732Z,23.20
2018-08-24T22:39:10.528Z,23.10
2018-08-24T22:41:55.090Z,23.00
2018-08-24T22:44:29.079Z,23.00
2018-08-24T22:46:59.326Z,23.00
2018-08-24T22:49:45.848Z,22.90
2018-08-24T22:52:30.722Z,22.90
2018-08-24T22:55:01.920Z,22.90
2018-08-24T22:57:30.591Z,22.80
2018-08-24T23:00:10.936Z,22.80
2018-08-24T23:02:49.777Z,22.80
2018-08-24T23:05:28.652Z,22.80
2018-08-24T23:08:07.603Z,22.80
2018-08-24T23:10:50.304Z,22.80
2018-08-24T23:13:29.103Z,22.80
2018-08-24T23:19:06.926Z,22.90
2018-08-24T23:24:31.325Z,23.20
2018-08-24T23:27:11.304Z,23.20
2018-08-24T23:29:53.054Z,23.20
2018-08-24T23:32:33.641Z,23.10
2018-08-24T23:35:12.154Z,23.00
2018-08-24T23:37:55.033Z,22.90
2018-08-24T23:40:31.554Z,22.90
2018-08-24T23:43:21.540Z,22.90
2018-08-24T23:46:04.698Z,22.90
2018-08-24T23:48:42.684Z,22.80
2018-08-24T23:51:28.610Z,22.80
2018-08-24T23:53:58.240Z,22.80
2018-08-24T23:56:35.484Z,22.80
2018-08-24T23:59:19.147Z,22.80
